createdAt,value
2018-11-01T00:01:30.655Z,4.53
2018-11-01T00:06:21.581Z,3.70
2018-11-01T00:11:12.489Z,3.80
2018-11-01T00:16:03.407Z,3.97
2018-11-01T00:20:54.328Z,3.20
2018-11-01T00:25:45.961Z,4.10
2018-11-01T00:30:37.615Z,3.20
2018-11-01T00:35:28.515Z,3.40
2018-11-01T00:40:19.406Z,4.40
2018-11-01T00:45:10.307Z,3.40
2018-11-01T00:50:01.201Z,2.93
2018-11-01T00:54:52.096Z,3.20
2018-11-01T00:59:43.017Z,3.60
2018-11-01T01:04:33.914Z,3.83
2018-11-01T01:09:24.804Z,3.20
2018-11-01T01:14:30.683Z,3.43
2018-11-01T01:19:21.601Z,3.47
2018-11-01T01:24:12.504Z,3.60
2018-11-01T01:29:03.412Z,3.97
2018-11-01T01:33:54.338Z,5.07
2018-11-01T01:38:45.338Z,3.77
2018-11-01T01:43:36.244Z,3.97
2018-11-01T01:48:27.204Z,4.00
2018-11-01T01:53:18.111Z,4.43
2018-11-01T01:58:09.014Z,4.73
2018-11-01T02:03:01.017Z,4.10
2018-11-01T02:07:51.938Z,4.23
2018-11-01T02:12:42.825Z,4.50
2018-11-01T02:17:33.758Z,3.77
2018-11-01T02:22:24.634Z,4.10
2018-11-01T02:27:16.257Z,4.90
2018-11-01T02:32:07.178Z,4.10
2018-11-01T02:36:58.103Z,4.77
2018-11-01T02:41:49.004Z,4.23
2018-11-01T02:46:40.643Z,4.77
2018-11-01T02:51:32.293Z,6.90
2018-11-01T02:56:23.218Z,5.30
2018-11-01T03:01:14.129Z,5.03
2018-11-01T03:06:05.785Z,4.50
2018-11-01T03:10:56.707Z,6.43
2018-11-01T03:15:47.613Z,4.93
2018-11-01T03:20:38.526Z,5.00
2018-11-01T03:25:30.195Z,5.30
2018-11-01T03:30:21.086Z,4.53
2018-11-01T03:35:12.016Z,4.67
2018-11-01T03:40:02.893Z,4.87
2018-11-01T03:44:53.807Z,5.30
2018-11-01T03:49:44.717Z,5.60
2018-11-01T03:54:35.632Z,5.30
2018-11-01T03:59:26.526Z,5.20
2018-11-01T04:04:17.408Z,8.10
2018-11-01T04:09:09.042Z,6.00
2018-11-01T04:14:00.700Z,5.33
2018-11-01T04:18:52.349Z,5.67
2018-11-01T04:23:43.245Z,5.03
2018-11-01T04:28:34.885Z,5.00
2018-11-01T04:33:26.643Z,6.33
2018-11-01T04:38:17.441Z,5.97
2018-11-01T04:43:08.349Z,5.70
2018-11-01T04:47:59.336Z,5.37
2018-11-01T04:52:50.161Z,5.80
2018-11-01T04:57:41.054Z,5.57
2018-11-01T05:02:31.961Z,7.30
2018-11-01T05:07:22.849Z,5.97
2018-11-01T05:12:13.744Z,5.43
2018-11-01T05:17:04.641Z,5.77
2018-11-01T05:21:56.298Z,6.23
2018-11-01T05:26:47.201Z,6.50
2018-11-01T05:31:38.088Z,5.20
2018-11-01T05:36:28.990Z,6.60
2018-11-01T05:41:19.879Z,6.60
2018-11-01T05:46:10.784Z,6.20
2018-11-01T05:51:01.672Z,5.97
2018-11-01T05:55:53.333Z,9.67
2018-11-01T06:00:44.307Z,6.40
2018-11-01T06:05:35.207Z,6.60
2018-11-01T06:10:26.129Z,7.77
2018-11-01T06:15:17.024Z,8.07
2018-11-01T06:20:08.658Z,7.17
2018-11-01T06:25:00.310Z,6.17
2018-11-01T06:29:51.204Z,8.23
2018-11-01T06:34:42.868Z,6.27
2018-11-01T06:39:33.804Z,6.27
2018-11-01T06:44:25.485Z,5.70
2018-11-01T06:49:17.083Z,8.43
2018-11-01T06:54:07.998Z,9.10
2018-11-01T06:58:58.991Z,7.07
2018-11-01T07:03:49.817Z,6.47
2018-11-01T07:08:40.850Z,6.97
2018-11-01T07:13:31.777Z,6.37
2018-11-01T07:18:23.488Z,6.07
2018-11-01T07:23:14.409Z,8.90
2018-11-01T07:28:05.309Z,6.30
2018-11-01T07:32:57.034Z,5.67
2018-11-01T07:37:47.888Z,7.50
2018-11-01T07:42:38.801Z,6.30
2018-11-01T07:47:30.448Z,6.07
2018-11-01T07:52:21.361Z,6.03
2018-11-01T07:57:12.284Z,7.07
2018-11-01T08:02:03.209Z,7.03
2018-11-01T08:06:54.204Z,7.70
2018-11-01T08:11:45.284Z,10.73
2018-11-01T08:16:36.146Z,10.73
2018-11-01T08:21:27.065Z,14.73
2018-11-01T08:26:18.007Z,14.73
2018-11-01T08:31:08.913Z,14.20
2018-11-01T08:35:59.858Z,14.60
2018-11-01T08:40:51.528Z,14.73
2018-11-01T08:45:42.425Z,17.33
2018-11-01T08:50:34.120Z,19.37
2018-11-01T08:55:25.015Z,21.17
2018-11-01T09:00:16.646Z,17.40
2018-11-01T09:05:07.542Z,24.27
2018-11-01T09:09:58.445Z,23.53
2018-11-01T09:14:49.361Z,21.07
2018-11-01T09:19:40.256Z,25.10
2018-11-01T09:24:31.159Z,20.43
2018-11-01T09:29:22.078Z,22.17
2018-11-01T09:34:12.995Z,31.00
2018-11-01T09:39:03.909Z,26.40
2018-11-01T09:43:54.816Z,30.13
2018-11-01T09:48:46.479Z,28.73
2018-11-01T09:53:37.411Z,23.70
2018-11-01T09:58:29.087Z,30.03
2018-11-01T10:03:20.012Z,22.63
2018-11-01T10:08:11.647Z,30.37
2018-11-01T10:13:02.589Z,23.20
2018-11-01T10:17:54.744Z,30.97
2018-11-01T10:22:45.305Z,25.57
2018-11-01T10:27:36.895Z,23.57
2018-11-01T10:32:27.781Z,28.93
2018-11-01T10:37:18.687Z,22.83
2018-11-01T10:42:09.590Z,20.90
2018-11-01T10:47:00.479Z,26.73
2018-11-01T10:51:51.497Z,27.50
2018-11-01T10:56:42.416Z,21.93
2018-11-01T11:01:33.315Z,21.60
2018-11-01T11:06:24.246Z,19.93
2018-11-01T11:11:15.148Z,23.37
2018-11-01T11:16:06.045Z,21.00
2018-11-01T11:20:57.965Z,19.73
2018-11-01T11:25:48.632Z,20.40
2018-11-01T11:30:40.366Z,16.20
2018-11-01T11:35:31.249Z,17.63
2018-11-01T11:40:22.133Z,17.70
2018-11-01T11:45:13.042Z,16.73
2018-11-01T11:50:03.922Z,17.10
2018-11-01T11:54:54.823Z,19.20
2018-11-01T11:59:45.952Z,21.43
2018-11-01T12:04:36.850Z,15.03
2018-11-01T12:09:27.753Z,13.10
2018-11-01T12:14:19.414Z,11.60
2018-11-01T12:19:10.304Z,13.93
2018-11-01T12:24:01.202Z,13.90
2018-11-01T12:28:52.922Z,12.50
2018-11-01T12:33:44.501Z,11.77
2018-11-01T12:38:35.398Z,11.90
2018-11-01T12:43:27.050Z,16.00
2018-11-01T12:48:25.041Z,13.43
2018-11-01T12:53:16.728Z,10.07
2018-11-01T12:58:08.365Z,10.23
2018-11-01T13:02:59.276Z,9.30
2018-11-01T13:07:50.187Z,8.90
2018-11-01T13:12:41.090Z,12.30
2018-11-01T13:17:31.991Z,9.67
2018-11-01T13:22:22.900Z,10.80
2018-11-01T13:27:14.548Z,9.30
2018-11-01T13:32:05.482Z,9.70
2018-11-01T13:36:57.137Z,9.27
2018-11-01T13:41:48.096Z,10.57
2018-11-01T13:46:39.128Z,10.73
2018-11-01T13:51:29.964Z,10.20
2018-11-01T13:56:21.003Z,8.47
2018-11-01T14:01:12.637Z,12.70
2018-11-01T14:06:04.306Z,10.40
2018-11-01T14:10:55.257Z,7.43
2018-11-01T14:15:46.863Z,6.90
2018-11-01T14:20:37.766Z,9.23
2018-11-01T14:25:28.723Z,9.23
2018-11-01T14:30:19.632Z,8.90
2018-11-01T14:35:11.299Z,13.20
2018-11-01T14:40:02.201Z,7.80
2018-11-01T14:44:53.108Z,7.87
2018-11-01T14:49:44.008Z,7.60
2018-11-01T14:54:35.824Z,7.23
2018-11-01T14:59:28.090Z,13.10
2018-11-01T15:04:17.596Z,9.50
2018-11-01T15:09:08.493Z,10.53
2018-11-01T15:14:00.168Z,8.97
2018-11-01T15:18:51.823Z,7.43
2018-11-01T15:23:42.732Z,10.17
2018-11-01T15:34:28.324Z,8.47
2018-11-01T15:39:19.963Z,8.53
2018-11-01T15:44:10.870Z,13.83
2018-11-01T15:49:01.810Z,10.57
2018-11-01T15:53:52.888Z,8.33
2018-11-01T15:58:43.888Z,13.93
2018-11-01T16:03:34.847Z,8.87
2018-11-01T16:08:25.703Z,9.47
2018-11-01T16:13:16.613Z,15.53
2018-11-01T16:18:07.509Z,12.80
2018-11-01T16:22:59.173Z,11.80
2018-11-01T16:27:50.090Z,14.23
2018-11-01T16:32:41.802Z,8.53
2018-11-01T16:37:33.484Z,11.23
2018-11-01T16:42:24.683Z,10.03
2018-11-01T16:47:15.407Z,10.63
2018-11-01T16:52:07.062Z,9.70
2018-11-01T16:56:57.973Z,14.83
2018-11-01T17:01:48.898Z,11.23
2018-11-01T17:06:39.829Z,8.93
2018-11-01T17:11:30.758Z,20.40
2018-11-01T17:16:21.677Z,9.47
2018-11-01T17:21:12.602Z,9.03
2018-11-01T17:26:04.253Z,12.60
2018-11-01T17:30:55.190Z,13.43
2018-11-01T17:35:46.885Z,11.10
2018-11-01T17:40:38.618Z,12.97
2018-11-01T17:45:29.563Z,18.67
2018-11-01T17:50:20.467Z,9.93
2018-11-01T17:55:11.371Z,13.43
2018-11-01T18:00:02.291Z,16.63
2018-11-01T18:04:53.953Z,14.47
2018-11-01T18:09:44.865Z,15.73
2018-11-01T18:14:36.647Z,10.87
2018-11-01T18:19:27.489Z,9.83
2018-11-01T18:24:18.460Z,12.00
2018-11-01T18:29:10.109Z,18.50
2018-11-01T18:34:01.012Z,14.40
2018-11-01T18:38:51.914Z,15.17
2018-11-01T18:43:43.596Z,13.93
2018-11-01T18:48:35.393Z,11.70
2018-11-01T18:53:26.178Z,10.53
2018-11-01T18:58:17.092Z,14.77
2018-11-01T19:03:08.110Z,14.07
2018-11-01T19:07:59.111Z,13.37
2018-11-01T19:12:50.087Z,12.60
2018-11-01T19:17:41.020Z,11.27
2018-11-01T19:22:31.963Z,15.80
2018-11-01T19:27:23.113Z,11.50
2018-11-01T19:32:13.814Z,9.27
2018-11-01T19:37:04.734Z,10.17
2018-11-01T19:41:55.673Z,19.03
2018-11-01T19:46:46.580Z,10.47
2018-11-01T19:51:37.600Z,8.57
2018-11-01T19:56:28.528Z,10.83
2018-11-01T20:01:19.425Z,15.93
2018-11-01T20:06:11.131Z,10.77
2018-11-01T20:11:02.044Z,12.23
2018-11-01T20:15:52.998Z,14.27
2018-11-01T20:20:43.952Z,12.40
2018-11-01T20:25:35.644Z,7.87
2018-11-01T20:30:27.327Z,7.10
2018-11-01T20:35:18.200Z,7.93
2018-11-01T20:40:09.843Z,12.83
2018-11-01T20:45:00.745Z,9.67
2018-11-01T20:49:52.414Z,9.60
2018-11-01T20:54:43.322Z,9.10
2018-11-01T20:59:35.045Z,8.90
2018-11-01T21:04:25.962Z,10.40
2018-11-01T21:09:18.398Z,9.30
2018-11-01T21:14:09.406Z,10.67
2018-11-01T21:19:00.380Z,7.77
2018-11-01T21:23:51.357Z,7.83
2018-11-01T21:28:42.326Z,8.20
2018-11-01T21:33:33.331Z,7.40
2018-11-01T21:38:24.297Z,8.20
2018-11-01T21:43:15.249Z,11.63
2018-11-01T21:48:06.221Z,10.67
2018-11-01T21:52:57.183Z,7.80
2018-11-01T21:57:48.894Z,7.00
2018-11-01T22:02:39.870Z,6.30
2018-11-01T22:07:31.499Z,6.57
2018-11-01T22:12:22.526Z,7.50
2018-11-01T22:17:14.212Z,12.40
2018-11-01T22:22:05.178Z,6.70
2018-11-01T22:26:56.153Z,6.63
2018-11-01T22:31:47.067Z,6.30
2018-11-01T22:36:37.972Z,6.13
2018-11-01T22:41:29.718Z,8.93
2018-11-01T22:46:20.661Z,9.43
2018-11-01T22:51:11.641Z,6.50
2018-11-01T22:56:02.583Z,6.40
2018-11-01T23:00:54.234Z,5.40
2018-11-01T23:05:45.191Z,7.63
2018-11-01T23:10:36.098Z,5.90
2018-11-01T23:15:27.822Z,5.90
2018-11-01T23:20:18.769Z,6.00
2018-11-01T23:25:10.469Z,5.77
2018-11-01T23:30:02.130Z,6.30
2018-11-01T23:34:53.040Z,6.00
2018-11-01T23:39:50.977Z,5.67
2018-11-01T23:44:48.704Z,5.40
2018-11-01T23:49:40.346Z,5.73
2018-11-01T23:54:31.235Z,5.17
2018-11-01T23:59:22.153Z,5.50
